Gazi — 9HA2542 — position and weather

sailwx.info

Track history (hours):
 
Tides and Currents Weather Stations Pressure Air Temp Water Temp Dewpoint Dewpoint Depression Visibility Wind Speed Wind Dir Waves Ship Positions

Gazi

Last reported at 2017-Mar-19 20:33 UTC. Time now 2017-Mar-23 04:11 UTC.
Position N 01°15' E 104°07'.

Length 153 m; draft 9.5 m.

Type: Other ship. MMSI: 248841000.

Date/timePositionNaut miles runAvg speedWind from/ knotsBaromVisibWave heightAir tempDewpointWater temp
2017-Mar-19 20:33N 01°15' E 104°07'1110.6
2017-Mar-19 19:33N 01°14' E 103°56'7 6.9
2017-Mar-19 18:33N 01°12' E 103°50'1 1.3
2017-Mar-19 17:30N 01°13' E 103°49'1 1.3
2017-Mar-19 16:30N 01°14' E 103°49'0 0.0
2017-Mar-19 15:06N 01°14' E 103°49'0 0.2
2017-Mar-19 14:30N 01°14' E 103°49'0 0.0
2017-Mar-19 13:33N 01°14' E 103°49'0 0.0
2017-Mar-19 12:30N 01°14' E 103°49'0 0.0
2017-Mar-19 11:33N 01°14' E 103°49'0 0.0
2017-Mar-19 10:33N 01°14' E 103°49'0 0.0
2017-Mar-19 09:33N 01°14' E 103°49'0 0.0
2017-Mar-19 08:27N 01°14' E 103°49'0 0.1
2017-Mar-19 07:33N 01°14' E 103°49'0 0.1
2017-Mar-19 06:33N 01°14' E 103°49'0 0.0
2017-Mar-19 05:33N 01°14' E 103°49'0 0.1
2017-Mar-19 04:33N 01°14' E 103°49'0 0.1
2017-Mar-19 03:33N 01°14' E 103°49'0 0.1
2017-Mar-19 02:33N 01°14' E 103°49'0 0.0
2017-Mar-19 01:33N 01°14' E 103°49'0 0.0
2017-Mar-19 00:21N 01°14' E 103°49'0 0.0
2017-Mar-18 23:30N 01°14' E 103°49'0 0.1
2017-Mar-18 22:33N 01°14' E 103°49'1 1.1
2017-Mar-18 21:29N 01°13' E 103°50'0 0.1
2017-Mar-18 20:29N 01°13' E 103°50'5 5.7
2017-Mar-18 19:33N 01°15' E 103°45'8 8.0
2017-Mar-18 18:33N 01°12' E 103°37'6 5.6
2017-Mar-18 17:33N 01°11' E 103°32'6 6.1
2017-Mar-18 16:33N 01°12' E 103°25'7 6.3
2017-Mar-18 15:30N 01°16' E 103°20'44 8.8
2017-Mar-18 10:32N 01°40' E 102°44'13 9.0
2017-Mar-18 09:04N 01°46' E 102°32'5 9.4
2017-Mar-18 08:33N 01°48' E 102°28'10 9.6
2017-Mar-18 07:32N 01°52' E 102°19'  
Track history (hours):
 
Tides and Currents Weather Stations Pressure Air Temp Water Temp Dewpoint Dewpoint Depression Visibility Wind Speed Wind Dir Waves Ship Positions

Gazi

Last reported at 2017-Mar-19 20:33 UTC. Time now 2017-Mar-23 04:11 UTC.
Position N 01°15' E 104°07'.

Length 153 m; draft 9.5 m.

Type: Other ship. MMSI: 248841000.

Date/timePositionNaut miles runAvg speedWind from/ knotsBaromVisibWave heightAir tempDewpointWater temp
2017-Mar-19 20:33N 01°15' E 104°07'1110.6
2017-Mar-19 19:33N 01°14' E 103°56'7 6.9
2017-Mar-19 18:33N 01°12' E 103°50'1 1.3
2017-Mar-19 17:30N 01°13' E 103°49'1 1.3
2017-Mar-19 16:30N 01°14' E 103°49'0 0.0
2017-Mar-19 15:06N 01°14' E 103°49'0 0.2
2017-Mar-19 14:30N 01°14' E 103°49'0 0.0
2017-Mar-19 13:33N 01°14' E 103°49'0 0.0
2017-Mar-19 12:30N 01°14' E 103°49'0 0.0
2017-Mar-19 11:33N 01°14' E 103°49'0 0.0
2017-Mar-19 10:33N 01°14' E 103°49'0 0.0
2017-Mar-19 09:33N 01°14' E 103°49'0 0.0
2017-Mar-19 08:27N 01°14' E 103°49'0 0.1
2017-Mar-19 07:33N 01°14' E 103°49'0 0.1
2017-Mar-19 06:33N 01°14' E 103°49'0 0.0
2017-Mar-19 05:33N 01°14' E 103°49'0 0.1
2017-Mar-19 04:33N 01°14' E 103°49'0 0.1
2017-Mar-19 03:33N 01°14' E 103°49'0 0.1
2017-Mar-19 02:33N 01°14' E 103°49'0 0.0
2017-Mar-19 01:33N 01°14' E 103°49'0 0.0
2017-Mar-19 00:21N 01°14' E 103°49'0 0.0
2017-Mar-18 23:30N 01°14' E 103°49'0 0.1
2017-Mar-18 22:33N 01°14' E 103°49'1 1.1
2017-Mar-18 21:29N 01°13' E 103°50'0 0.1
2017-Mar-18 20:29N 01°13' E 103°50'5 5.7
2017-Mar-18 19:33N 01°15' E 103°45'8 8.0
2017-Mar-18 18:33N 01°12' E 103°37'6 5.6
2017-Mar-18 17:33N 01°11' E 103°32'6 6.1
2017-Mar-18 16:33N 01°12' E 103°25'7 6.3
2017-Mar-18 15:30N 01°16' E 103°20'44 8.8
2017-Mar-18 10:32N 01°40' E 102°44'13 9.0
2017-Mar-18 09:04N 01°46' E 102°32'5 9.4
2017-Mar-18 08:33N 01°48' E 102°28'10 9.6
2017-Mar-18 07:32N 01°52' E 102°19'  

Dump ship's entire track history